Check out our new BloomSky Weather System.

Active alerts


No alerts


Thunder radar  blitzortung!


Rain radar more information rain snow radar


Visit our other weather sites:

Template documentation
and downloads

And another site



Weather Underground History page Text

Daily Summary for July 2, 2017 Units:  English    Metric   Both
« Previous Day
Next Day »
Daily Weekly Monthly Yearly Custom
  High: Low: Average:
Temperature: 95.2 °F 78.3 °F 86 °F
Dew Point: 79.7 °F 76.3 °F 77.6 °F
Humidity: 94 % 56 % 77 %
Wind Speed: 11.0 mph 0.0 mph 3.9 mph
Wind Gust: 15.0 mph - -
Wind:- - SE
Pressure: 30.14 in 30.00 in -
Precipitation: 0.00 in    
Historical Graphs
 
 
Tabular Data for July 2, 2017
Time Temperature Dew Point Pressure Wind Wind Speed Wind Gust Humidity Rainfall Rate (Hourly)
00:25 81.1 °F 76.5 °F 30.07 in South 3.0 mph -999.0 mph 86 % 0.00 in
00:30 81.1 °F 76.5 °F 30.08 in South 3.0 mph 4.0 mph 86 % 0.00 in
00:35 81.0 °F 76.5 °F 30.08 in SE 2.0 mph 5.0 mph 86 % 0.00 in
00:40 81.0 °F 76.6 °F 30.07 in SE 3.0 mph 5.0 mph 87 % 0.00 in
00:45 81.0 °F 76.6 °F 30.08 in SSE 2.0 mph 5.0 mph 87 % 0.00 in
00:50 80.8 °F 76.5 °F 30.07 in SE 3.0 mph 5.0 mph 87 % 0.00 in
00:55 80.8 °F 76.5 °F 30.07 in Calm   4.0 mph 87 % 0.00 in
01:00 80.8 °F 76.5 °F 30.07 in SSE 2.0 mph 4.0 mph 87 % 0.00 in
01:05 80.6 °F 76.3 °F 30.07 in South 2.0 mph 4.0 mph 87 % 0.00 in
01:10 80.4 °F 76.5 °F 30.07 in SE 2.0 mph 5.0 mph 88 % 0.00 in
01:16 80.4 °F 76.5 °F 30.07 in SSE 4.0 mph 5.0 mph 88 % 0.00 in
01:21 80.4 °F 76.5 °F 30.07 in SE 2.0 mph 5.0 mph 88 % 0.00 in
01:26 80.2 °F 76.3 °F 30.06 in SSE 2.0 mph 5.0 mph 88 % 0.00 in
01:31 80.2 °F 76.3 °F 30.06 in South 3.0 mph 5.0 mph 88 % 0.00 in
01:36 80.2 °F 76.3 °F 30.07 in SE 1.0 mph 5.0 mph 88 % 0.00 in
01:41 80.1 °F 76.5 °F 30.07 in SSE 2.0 mph 4.0 mph 89 % 0.00 in
01:46 80.1 °F 76.5 °F 30.07 in SE 1.0 mph 4.0 mph 89 % 0.00 in
01:51 80.1 °F 76.5 °F 30.07 in South 1.0 mph 4.0 mph 89 % 0.00 in
01:56 80.1 °F 76.5 °F 30.07 in SSE 2.0 mph 4.0 mph 89 % 0.00 in
02:01 80.1 °F 76.5 °F 30.07 in SW 2.0 mph 4.0 mph 89 % 0.00 in
02:06 79.9 °F 76.3 °F 30.07 in SE 2.0 mph 4.0 mph 89 % 0.00 in
02:11 79.9 °F 76.3 °F 30.07 in South 1.0 mph 4.0 mph 89 % 0.00 in
02:16 79.9 °F 76.6 °F 30.06 in SSE 2.0 mph 3.0 mph 90 % 0.00 in
02:21 79.9 °F 76.6 °F 30.06 in SSE 2.0 mph 3.0 mph 90 % 0.00 in
02:26 79.7 °F 76.5 °F 30.06 in SSW 2.0 mph 4.0 mph 90 % 0.00 in
02:31 79.7 °F 76.5 °F 30.06 in SE 3.0 mph 4.0 mph 90 % 0.00 in
02:36 79.7 °F 76.5 °F 30.06 in SSE 1.0 mph 4.0 mph 90 % 0.00 in
02:41 79.5 °F 76.3 °F 30.06 in SE 1.0 mph 3.0 mph 90 % 0.00 in
02:46 79.5 °F 76.3 °F 30.06 in SE 1.0 mph 3.0 mph 90 % 0.00 in
02:51 79.5 °F 76.3 °F 30.06 in Calm   3.0 mph 90 % 0.00 in
02:56 79.5 °F 76.6 °F 30.06 in SSE 1.0 mph 4.0 mph 91 % 0.00 in
03:01 79.3 °F 76.5 °F 30.06 in Calm   4.0 mph 91 % 0.00 in
03:06 79.3 °F 76.5 °F 30.06 in East 2.0 mph 4.0 mph 91 % 0.00 in
03:11 79.3 °F 76.5 °F 30.06 in ESE 1.0 mph 3.0 mph 91 % 0.00 in
03:16 79.3 °F 76.5 °F 30.06 in East 4.0 mph 4.0 mph 91 % 0.00 in
03:21 79.3 °F 76.5 °F 30.06 in SE 1.0 mph 4.0 mph 91 % 0.00 in
03:26 79.3 °F 76.5 °F 30.06 in ESE 1.0 mph 4.0 mph 91 % 0.00 in
03:31 79.2 °F 76.3 °F 30.06 in Calm   4.0 mph 91 % 0.00 in
03:36 79.2 °F 76.6 °F 30.05 in SE 1.0 mph 4.0 mph 92 % 0.00 in
03:39 79.2 °F 76.6 °F 30.05 in Calm   4.0 mph 92 % 0.00 in
03:44 79.2 °F 76.6 °F 30.05 in ESE 2.0 mph 4.0 mph 92 % 0.00 in
03:49 79.2 °F 76.6 °F 30.05 in ESE 2.0 mph 4.0 mph 92 % 0.00 in
03:54 79.2 °F 76.6 °F 30.05 in SE 2.0 mph 4.0 mph 92 % 0.00 in
04:58 78.8 °F 76.3 °F 30.06 in Calm   3.0 mph 92 % 0.00 in
05:03 78.6 °F 76.5 °F 30.06 in SE 1.0 mph 4.0 mph 93 % 0.00 in
05:08 78.6 °F 76.5 °F 30.07 in ESE 2.0 mph 4.0 mph 93 % 0.00 in
05:13 78.6 °F 76.5 °F 30.07 in Calm   4.0 mph 93 % 0.00 in
05:18 78.4 °F 76.3 °F 30.08 in SSW 2.0 mph 3.0 mph 93 % 0.00 in
05:23 78.4 °F 76.3 °F 30.08 in South 1.0 mph 4.0 mph 93 % 0.00 in
05:28 78.4 °F 76.3 °F 30.08 in SE 1.0 mph 4.0 mph 93 % 0.00 in
05:33 78.4 °F 76.3 °F 30.08 in SE 1.0 mph 4.0 mph 93 % 0.00 in
05:38 78.4 °F 76.3 °F 30.08 in Calm   3.0 mph 93 % 0.00 in
05:43 78.4 °F 76.6 °F 30.09 in Calm   3.0 mph 94 % 0.00 in
05:48 78.3 °F 76.5 °F 30.08 in Calm   4.0 mph 94 % 0.00 in
05:53 78.3 °F 76.5 °F 30.09 in Calm   4.0 mph 94 % 0.00 in
05:58 78.3 °F 76.5 °F 30.09 in SE 1.0 mph 4.0 mph 94 % 0.00 in
06:03 78.3 °F 76.5 °F 30.09 in East 1.0 mph 2.0 mph 94 % 0.00 in
06:05 78.3 °F 76.5 °F 30.09 in SE 1.0 mph 2.0 mph 94 % 0.00 in
06:10 78.3 °F 76.5 °F 30.09 in SE 1.0 mph 2.0 mph 94 % 0.00 in
06:15 78.3 °F 76.5 °F 30.09 in Calm   2.0 mph 94 % 0.00 in
06:20 78.3 °F 76.5 °F 30.09 in ESE 1.0 mph 2.0 mph 94 % 0.00 in
06:25 78.3 °F 76.5 °F 30.09 in Calm   3.0 mph 94 % 0.00 in
06:30 78.3 °F 76.5 °F 30.10 in Calm   3.0 mph 94 % 0.00 in
06:35 78.3 °F 76.5 °F 30.10 in ESE 2.0 mph 3.0 mph 94 % 0.00 in
06:40 78.3 °F 76.5 °F 30.11 in ESE 1.0 mph 3.0 mph 94 % 0.00 in
06:45 78.3 °F 76.5 °F 30.11 in ESE 1.0 mph 3.0 mph 94 % 0.00 in
06:50 78.3 °F 76.5 °F 30.11 in Calm   3.0 mph 94 % 0.00 in
06:55 78.3 °F 76.5 °F 30.11 in SE 2.0 mph 2.0 mph 94 % 0.00 in
06:56 78.4 °F 76.6 °F 30.11 in Calm   2.0 mph 94 % 0.00 in
07:01 78.4 °F 76.6 °F 30.11 in Calm   2.0 mph 94 % 0.00 in
07:06 78.4 °F 76.6 °F 30.12 in SE 1.0 mph 2.0 mph 94 % 0.00 in
07:11 78.6 °F 76.8 °F 30.12 in Calm   2.0 mph 94 % 0.00 in
07:16 79.0 °F 77.2 °F 30.12 in ENE 1.0 mph 2.0 mph 94 % 0.00 in
07:21 79.2 °F 77.4 °F 30.12 in SE 2.0 mph 2.0 mph 94 % 0.00 in
07:26 79.3 °F 77.5 °F 30.12 in SSE 1.0 mph 3.0 mph 94 % 0.00 in
07:31 79.5 °F 77.7 °F 30.12 in SSE 2.0 mph 3.0 mph 94 % 0.00 in
07:36 79.9 °F 77.7 °F 30.12 in SSE 1.0 mph 3.0 mph 93 % 0.00 in
07:41 80.1 °F 77.9 °F 30.13 in SSE 1.0 mph 4.0 mph 93 % 0.00 in
07:46 80.4 °F 77.9 °F 30.13 in East 2.0 mph 5.0 mph 92 % 0.00 in
07:51 80.6 °F 78.1 °F 30.13 in Calm   5.0 mph 92 % 0.00 in
07:56 81.0 °F 78.4 °F 30.13 in SSE 3.0 mph 5.0 mph 92 % 0.00 in
08:01 81.3 °F 78.4 °F 30.13 in ENE 2.0 mph 4.0 mph 91 % 0.00 in
08:06 81.9 °F 78.6 °F 30.14 in ESE 3.0 mph 4.0 mph 90 % 0.00 in
08:11 82.0 °F 78.4 °F 30.14 in SSE 3.0 mph 5.0 mph 89 % 0.00 in
08:16 82.4 °F 78.4 °F 30.14 in SSE 2.0 mph 7.0 mph 88 % 0.00 in
08:21 82.8 °F 78.4 °F 30.14 in ESE 4.0 mph 7.0 mph 87 % 0.00 in
08:26 82.9 °F 78.6 °F 30.14 in ESE 7.0 mph 8.0 mph 87 % 0.00 in
08:31 83.3 °F 78.6 °F 30.14 in South 5.0 mph 8.0 mph 86 % 0.00 in
08:36 83.7 °F 79.0 °F 30.14 in SSE 3.0 mph 8.0 mph 86 % 0.00 in
08:41 83.7 °F 78.6 °F 30.14 in SSE 7.0 mph 9.0 mph 85 % 0.00 in
08:46 83.8 °F 78.8 °F 30.14 in SE 6.0 mph 9.0 mph 85 % 0.00 in
08:51 84.0 °F 79.0 °F 30.14 in SE 5.0 mph 9.0 mph 85 % 0.00 in
08:56 84.4 °F 79.0 °F 30.14 in SSE 5.0 mph 9.0 mph 84 % 0.00 in
09:01 84.6 °F 78.8 °F 30.14 in ESE 8.0 mph 9.0 mph 83 % 0.00 in
09:06 84.7 °F 79.0 °F 30.14 in SSE 2.0 mph 9.0 mph 83 % 0.00 in
09:11 85.3 °F 79.2 °F 30.14 in SSW 4.0 mph 9.0 mph 82 % 0.00 in
09:16 85.5 °F 79.0 °F 30.14 in SE 8.0 mph 9.0 mph 81 % 0.00 in
09:21 85.6 °F 78.8 °F 30.14 in SE 4.0 mph 10.0 mph 80 % 0.00 in
09:26 85.6 °F 78.8 °F 30.13 in SSE 5.0 mph 10.0 mph 80 % 0.00 in
09:31 85.5 °F 78.3 °F 30.13 in SE 6.0 mph 10.0 mph 79 % 0.00 in
09:36 85.5 °F 78.6 °F 30.13 in SE 5.0 mph 10.0 mph 80 % 0.00 in
09:41 85.8 °F 79.0 °F 30.13 in SE 3.0 mph 10.0 mph 80 % 0.00 in
09:42 86.0 °F 78.8 °F 30.13 in East 7.0 mph 10.0 mph 79 % 0.00 in
09:47 86.4 °F 78.6 °F 30.13 in ESE 6.0 mph 11.0 mph 78 % 0.00 in
09:52 86.5 °F 78.8 °F 30.13 in South 4.0 mph 11.0 mph 78 % 0.00 in
09:57 87.1 °F 79.7 °F 30.13 in SE 1.0 mph 11.0 mph 79 % 0.00 in
10:02 86.9 °F 78.1 °F 30.14 in SE 5.0 mph 9.0 mph 75 % 0.00 in
10:07 86.9 °F 78.4 °F 30.14 in South 6.0 mph 8.0 mph 76 % 0.00 in
10:12 86.9 °F 78.4 °F 30.14 in ESE 5.0 mph 8.0 mph 76 % 0.00 in
10:18 87.1 °F 78.6 °F 30.14 in SE 3.0 mph 8.0 mph 76 % 0.00 in
10:23 87.1 °F 78.3 °F 30.14 in SSW 2.0 mph 8.0 mph 75 % 0.00 in
10:28 87.3 °F 78.8 °F 30.14 in SSW 1.0 mph 7.0 mph 76 % 0.00 in
10:33 87.6 °F 78.6 °F 30.14 in SE 4.0 mph 7.0 mph 75 % 0.00 in
10:38 88.0 °F 78.6 °F 30.14 in SSE 4.0 mph 6.0 mph 74 % 0.00 in
10:43 88.0 °F 78.3 °F 30.14 in SSE 4.0 mph 7.0 mph 73 % 0.00 in
10:48 88.2 °F 78.4 °F 30.14 in SSE 4.0 mph 8.0 mph 73 % 0.00 in
10:53 88.2 °F 77.9 °F 30.14 in Calm   8.0 mph 72 % 0.00 in
10:58 88.5 °F 78.3 °F 30.14 in SE 2.0 mph 8.0 mph 72 % 0.00 in
11:03 89.1 °F 79.3 °F 30.14 in SSE 3.0 mph 8.0 mph 73 % 0.00 in
11:08 89.2 °F 77.7 °F 30.14 in SE 6.0 mph 8.0 mph 69 % 0.00 in
11:13 89.4 °F 77.9 °F 30.14 in SSW 4.0 mph 13.0 mph 69 % 0.00 in
11:18 89.8 °F 78.3 °F 30.14 in SSW 2.0 mph 13.0 mph 69 % 0.00 in
11:23 89.8 °F 77.7 °F 30.13 in SSW 4.0 mph 13.0 mph 68 % 0.00 in
11:28 89.8 °F 78.3 °F 30.13 in SSE 3.0 mph 10.0 mph 69 % 0.00 in
11:33 89.4 °F 77.9 °F 30.13 in SE 3.0 mph 7.0 mph 69 % 0.00 in
11:38 90.1 °F 78.1 °F 30.13 in SSE 6.0 mph 7.0 mph 68 % 0.00 in
11:43 90.3 °F 77.9 °F 30.13 in SE 8.0 mph 10.0 mph 67 % 0.00 in
11:48 90.7 °F 78.3 °F 30.13 in SSE 3.0 mph 10.0 mph 67 % 0.00 in
11:53 91.0 °F 78.6 °F 30.13 in South 5.0 mph 10.0 mph 67 % 0.00 in
11:58 91.0 °F 77.2 °F 30.13 in SSW 3.0 mph 10.0 mph 64 % 0.00 in
12:03 91.4 °F 77.9 °F 30.13 in South 4.0 mph 12.0 mph 65 % 0.00 in
12:08 91.8 °F 78.3 °F 30.12 in SSW 4.0 mph 12.0 mph 65 % 0.00 in
12:13 91.6 °F 77.7 °F 30.12 in SSE 4.0 mph 12.0 mph 64 % 0.00 in
12:19 91.2 °F 77.7 °F 30.12 in ESE 3.0 mph 13.0 mph 65 % 0.00 in
12:24 91.6 °F 77.7 °F 30.12 in SE 9.0 mph 13.0 mph 64 % 0.00 in
12:28 91.9 °F 77.5 °F 30.12 in South 5.0 mph 13.0 mph 63 % 0.00 in
12:33 92.3 °F 77.9 °F 30.12 in SSE 8.0 mph 12.0 mph 63 % 0.00 in
12:39 92.7 °F 78.6 °F 30.12 in SSW 1.0 mph 12.0 mph 64 % 0.00 in
12:44 92.7 °F 77.7 °F 30.11 in ESE 5.0 mph 9.0 mph 62 % 0.00 in
12:49 92.7 °F 77.2 °F 30.10 in East 8.0 mph 10.0 mph 61 % 0.00 in
12:54 92.5 °F 77.5 °F 30.10 in SSE 7.0 mph 13.0 mph 62 % 0.00 in
12:59 92.7 °F 78.3 °F 30.10 in SSE 8.0 mph 13.0 mph 63 % 0.00 in
13:04 92.8 °F 78.4 °F 30.10 in WSW 3.0 mph 13.0 mph 63 % 0.00 in
13:09 92.7 °F 77.2 °F 30.09 in ESE 5.0 mph 12.0 mph 61 % 0.00 in
13:14 92.1 °F 77.2 °F 30.09 in SSW 3.0 mph 12.0 mph 62 % 0.00 in
13:19 92.3 °F 77.9 °F 30.09 in SE 7.0 mph 11.0 mph 63 % 0.00 in
13:24 92.3 °F 78.3 °F 30.09 in ESE 6.0 mph 9.0 mph 64 % 0.00 in
13:29 92.8 °F 78.4 °F 30.09 in SSE 5.0 mph 9.0 mph 63 % 0.00 in
13:34 93.0 °F 77.0 °F 30.09 in SSE 4.0 mph 8.0 mph 60 % 0.00 in
13:39 93.4 °F 77.9 °F 30.08 in SSW 6.0 mph 9.0 mph 61 % 0.00 in
13:44 93.2 °F 78.3 °F 30.08 in South 4.0 mph 9.0 mph 62 % 0.00 in
13:49 92.8 °F 77.9 °F 30.08 in East 4.0 mph 9.0 mph 62 % 0.00 in
13:54 92.5 °F 78.1 °F 30.08 in South 1.0 mph 8.0 mph 63 % 0.00 in
13:59 92.8 °F 77.4 °F 30.08 in SE 3.0 mph 8.0 mph 61 % 0.00 in
14:04 92.8 °F 78.4 °F 30.07 in SSW 2.0 mph 8.0 mph 63 % 0.00 in
14:09 93.4 °F 77.9 °F 30.08 in South 6.0 mph 8.0 mph 61 % 0.00 in
14:14 93.6 °F 78.1 °F 30.07 in SSE 4.0 mph 12.0 mph 61 % 0.00 in
14:19 93.0 °F 77.0 °F 30.07 in SSE 5.0 mph 12.0 mph 60 % 0.00 in
14:24 92.8 °F 77.4 °F 30.07 in ESE 4.0 mph 12.0 mph 61 % 0.00 in
14:29 92.8 °F 78.8 °F 30.06 in SW 2.0 mph 8.0 mph 64 % 0.00 in
14:34 93.6 °F 78.6 °F 30.06 in South 4.0 mph 9.0 mph 62 % 0.00 in
14:39 93.9 °F 78.4 °F 30.06 in ESE 3.0 mph 9.0 mph 61 % 0.00 in
14:44 93.4 °F 76.8 °F 30.06 in SE 4.0 mph 9.0 mph 59 % 0.00 in
14:49 93.0 °F 77.0 °F 30.06 in East 6.0 mph 7.0 mph 60 % 0.00 in
14:54 93.4 °F 77.9 °F 30.06 in SSW 2.0 mph 7.0 mph 61 % 0.00 in
14:59 93.9 °F 77.9 °F 30.06 in East 6.0 mph 7.0 mph 60 % 0.00 in
15:04 93.9 °F 77.4 °F 30.06 in SE 3.0 mph 10.0 mph 59 % 0.00 in
15:09 93.9 °F 76.8 °F 30.05 in SE 4.0 mph 10.0 mph 58 % 0.00 in
15:14 94.3 °F 77.2 °F 30.05 in SE 5.0 mph 10.0 mph 58 % 0.00 in
15:19 94.5 °F 76.8 °F 30.05 in SSE 2.0 mph 10.0 mph 57 % 0.00 in
15:24 94.5 °F 77.4 °F 30.05 in SSE 6.0 mph 10.0 mph 58 % 0.00 in
15:29 94.5 °F 77.9 °F 30.04 in SSE 3.0 mph 10.0 mph 59 % 0.00 in
15:34 94.6 °F 77.0 °F 30.05 in ESE 7.0 mph 9.0 mph 57 % 0.00 in
15:39 95.2 °F 78.6 °F 30.04 in South 5.0 mph 9.0 mph 59 % 0.00 in
15:44 95.2 °F 77.0 °F 30.04 in East 1.0 mph 9.0 mph 56 % 0.00 in
15:49 95.2 °F 79.2 °F 30.04 in SSE 3.0 mph 9.0 mph 60 % 0.00 in
15:54 94.5 °F 78.4 °F 30.04 in East 3.0 mph 10.0 mph 60 % 0.00 in
15:59 93.6 °F 78.1 °F 30.04 in East 3.0 mph 10.0 mph 61 % 0.00 in
16:04 93.4 °F 78.8 °F 30.04 in ENE 6.0 mph 10.0 mph 63 % 0.00 in
16:09 93.2 °F 78.8 °F 30.04 in SE 3.0 mph 10.0 mph 63 % 0.00 in
16:14 92.7 °F 78.6 °F 30.04 in SE 7.0 mph 12.0 mph 64 % 0.00 in
16:19 92.7 °F 79.2 °F 30.04 in SSE 7.0 mph 12.0 mph 65 % 0.00 in
16:24 92.7 °F 78.6 °F 30.04 in ESE 9.0 mph 12.0 mph 64 % 0.00 in
16:29 92.3 °F 78.8 °F 30.04 in ESE 3.0 mph 12.0 mph 65 % 0.00 in
16:34 92.1 °F 79.2 °F 30.03 in SE 2.0 mph 12.0 mph 66 % 0.00 in
16:39 92.5 °F 79.0 °F 30.04 in East 3.0 mph 12.0 mph 65 % 0.00 in
16:44 92.7 °F 79.2 °F 30.03 in East 4.0 mph 12.0 mph 65 % 0.00 in
16:49 92.5 °F 79.5 °F 30.03 in East 8.0 mph 12.0 mph 66 % 0.00 in
16:54 92.5 °F 79.5 °F 30.03 in East 4.0 mph 15.0 mph 66 % 0.00 in
16:59 92.5 °F 79.5 °F 30.02 in ESE 4.0 mph 15.0 mph 66 % 0.00 in
17:04 92.7 °F 79.7 °F 30.02 in South 4.0 mph 15.0 mph 66 % 0.00 in
17:09 92.8 °F 78.8 °F 30.02 in ESE 4.0 mph 12.0 mph 64 % 0.00 in
17:14 92.7 °F 79.2 °F 30.02 in SSE 6.0 mph 14.0 mph 65 % 0.00 in
17:19 92.5 °F 79.5 °F 30.02 in ESE 5.0 mph 14.0 mph 66 % 0.00 in
17:24 92.3 °F 79.3 °F 30.02 in South 6.0 mph 14.0 mph 66 % 0.00 in
17:29 91.9 °F 79.0 °F 30.01 in SSE 4.0 mph 12.0 mph 66 % 0.00 in
17:34 91.9 °F 79.0 °F 30.02 in SE 9.0 mph 13.0 mph 66 % 0.00 in
17:39 91.8 °F 78.8 °F 30.01 in ESE 4.0 mph 15.0 mph 66 % 0.00 in
17:44 91.8 °F 78.8 °F 30.01 in ESE 5.0 mph 15.0 mph 66 % 0.00 in
17:49 91.8 °F 79.2 °F 30.01 in SE 7.0 mph 15.0 mph 67 % 0.00 in
17:54 91.6 °F 79.0 °F 30.01 in SE 6.0 mph 14.0 mph 67 % 0.00 in
17:59 91.6 °F 79.0 °F 30.01 in SE 3.0 mph 12.0 mph 67 % 0.00 in
18:05 91.4 °F 78.8 °F 30.01 in ESE 8.0 mph 12.0 mph 67 % 0.00 in
18:09 91.0 °F 78.6 °F 30.01 in ENE 2.0 mph 12.0 mph 67 % 0.00 in
18:14 91.0 °F 78.6 °F 30.01 in ESE 6.0 mph 10.0 mph 67 % 0.00 in
18:15 91.0 °F 78.6 °F 30.01 in SE 6.0 mph 10.0 mph 67 % 0.00 in
18:20 91.2 °F 78.3 °F 30.00 in SSE 7.0 mph 11.0 mph 66 % 0.00 in
18:25 91.4 °F 78.4 °F 30.00 in ESE 5.0 mph 11.0 mph 66 % 0.00 in
18:31 91.6 °F 78.1 °F 30.00 in ESE 7.0 mph 11.0 mph 65 % 0.00 in
18:35 91.6 °F 78.6 °F 30.00 in South 6.0 mph 11.0 mph 66 % 0.00 in
18:41 91.6 °F 79.0 °F 30.00 in SSE 10.0 mph 12.0 mph 67 % 0.00 in
18:46 91.6 °F 78.6 °F 30.00 in SSE 6.0 mph 12.0 mph 66 % 0.00 in
18:51 91.2 °F 78.3 °F 30.00 in SSW 10.0 mph 12.0 mph 66 % 0.00 in
18:56 91.0 °F 78.6 °F 30.00 in SSE 11.0 mph 12.0 mph 67 % 0.00 in
19:01 91.0 °F 78.1 °F 30.00 in South 11.0 mph 13.0 mph 66 % 0.00 in
19:06 90.9 °F 77.9 °F 30.00 in SE 7.0 mph 15.0 mph 66 % 0.00 in
19:11 90.5 °F 78.1 °F 30.00 in SSE 9.0 mph 15.0 mph 67 % 0.00 in
19:16 90.1 °F 77.7 °F 30.01 in South 7.0 mph 15.0 mph 67 % 0.00 in
19:21 90.0 °F 77.9 °F 30.01 in South 8.0 mph 15.0 mph 68 % 0.00 in
19:26 89.4 °F 77.9 °F 30.01 in East 7.0 mph 13.0 mph 69 % 0.00 in
19:28 89.2 °F 77.7 °F 30.01 in SE 10.0 mph 13.0 mph 69 % 0.00 in
19:33 89.1 °F 77.5 °F 30.01 in SE 6.0 mph 13.0 mph 69 % 0.00 in
19:38 88.9 °F 77.4 °F 30.00 in ESE 10.0 mph 13.0 mph 69 % 0.00 in
19:43 88.5 °F 77.5 °F 30.01 in SSE 5.0 mph 14.0 mph 70 % 0.00 in
19:48 88.2 °F 77.2 °F 30.01 in SE 7.0 mph 14.0 mph 70 % 0.00 in
19:53 88.0 °F 77.4 °F 30.01 in SSW 6.0 mph 14.0 mph 71 % 0.00 in
19:58 87.6 °F 77.0 °F 30.01 in SSE 8.0 mph 13.0 mph 71 % 0.00 in
20:03 87.6 °F 77.0 °F 30.01 in ESE 8.0 mph 13.0 mph 71 % 0.00 in
20:08 87.4 °F 76.8 °F 30.01 in SE 6.0 mph 12.0 mph 71 % 0.00 in
20:13 87.3 °F 76.6 °F 30.01 in South 6.0 mph 13.0 mph 71 % 0.00 in
20:18 87.1 °F 77.0 °F 30.01 in South 4.0 mph 13.0 mph 72 % 0.00 in
20:23 86.7 °F 76.6 °F 30.01 in SE 7.0 mph 13.0 mph 72 % 0.00 in
20:28 86.5 °F 76.5 °F 30.01 in East 10.0 mph 11.0 mph 72 % 0.00 in
20:33 86.5 °F 76.5 °F 30.01 in SSE 5.0 mph 12.0 mph 72 % 0.00 in
20:38 86.4 °F 76.6 °F 30.01 in SE 6.0 mph 12.0 mph 73 % 0.00 in
20:43 86.2 °F 76.5 °F 30.01 in SE 9.0 mph 12.0 mph 73 % 0.00 in
20:48 86.0 °F 76.3 °F 30.01 in SE 3.0 mph 12.0 mph 73 % 0.00 in
20:53 85.8 °F 76.6 °F 30.01 in SE 4.0 mph 12.0 mph 74 % 0.00 in
20:58 85.6 °F 76.5 °F 30.01 in SE 2.0 mph 12.0 mph 74 % 0.00 in
21:03 85.6 °F 76.8 °F 30.01 in South 3.0 mph 8.0 mph 75 % 0.00 in
21:08 85.3 °F 76.5 °F 30.01 in South 4.0 mph 8.0 mph 75 % 0.00 in
21:13 85.1 °F 76.6 °F 30.01 in SSE 6.0 mph 9.0 mph 76 % 0.00 in
21:23 84.7 °F 76.6 °F 30.02 in South 6.0 mph 10.0 mph 77 % 0.00 in
21:28 84.7 °F 76.6 °F 30.02 in South 8.0 mph 11.0 mph 77 % 0.00 in
21:33 84.6 °F 77.0 °F 30.02 in SSE 6.0 mph 12.0 mph 78 % 0.00 in
21:38 84.4 °F 76.8 °F 30.02 in SE 4.0 mph 14.0 mph 78 % 0.00 in
21:43 84.2 °F 76.6 °F 30.02 in SSE 6.0 mph 14.0 mph 78 % 0.00 in
21:44 84.2 °F 76.6 °F 30.02 in SE 6.0 mph 14.0 mph 78 % 0.00 in
21:49 84.0 °F 76.8 °F 30.03 in SSE 5.0 mph 14.0 mph 79 % 0.00 in
21:54 83.8 °F 76.6 °F 30.03 in South 7.0 mph 12.0 mph 79 % 0.00 in
21:59 83.8 °F 77.0 °F 30.03 in SSE 3.0 mph 12.0 mph 80 % 0.00 in
22:04 83.7 °F 76.8 °F 30.02 in SE 3.0 mph 11.0 mph 80 % 0.00 in
22:09 83.5 °F 77.0 °F 30.03 in SSE 5.0 mph 12.0 mph 81 % 0.00 in
22:14 83.5 °F 77.0 °F 30.03 in SE 6.0 mph 12.0 mph 81 % 0.00 in
22:19 83.1 °F 77.0 °F 30.03 in ESE 8.0 mph 12.0 mph 82 % 0.00 in
22:24 83.1 °F 77.0 °F 30.03 in SE 6.0 mph 10.0 mph 82 % 0.00 in
22:29 83.1 °F 77.0 °F 30.03 in ESE 7.0 mph 10.0 mph 82 % 0.00 in
22:34 82.9 °F 77.2 °F 30.04 in SE 3.0 mph 10.0 mph 83 % 0.00 in
22:39 82.9 °F 77.2 °F 30.04 in SSE 7.0 mph 10.0 mph 83 % 0.00 in
22:44 82.8 °F 77.0 °F 30.04 in SSE 4.0 mph 10.0 mph 83 % 0.00 in
22:49 82.6 °F 77.2 °F 30.04 in SE 3.0 mph 10.0 mph 84 % 0.00 in
22:54 82.6 °F 77.2 °F 30.04 in SSE 2.0 mph 10.0 mph 84 % 0.00 in
22:59 82.6 °F 77.2 °F 30.04 in ESE 4.0 mph 9.0 mph 84 % 0.00 in
23:04 82.2 °F 76.8 °F 30.04 in SSW 2.0 mph 9.0 mph 84 % 0.00 in
23:09 82.2 °F 77.2 °F 30.04 in SSW 4.0 mph 9.0 mph 85 % 0.00 in
23:14 82.0 °F 77.0 °F 30.04 in South 5.0 mph 7.0 mph 85 % 0.00 in
23:17 82.0 °F 77.0 °F 30.04 in SE 4.0 mph 7.0 mph 85 % 0.00 in
23:22 81.9 °F 77.2 °F 30.04 in SE 5.0 mph 7.0 mph 86 % 0.00 in
23:27 81.9 °F 77.2 °F 30.04 in South 3.0 mph 8.0 mph 86 % 0.00 in
23:32 81.9 °F 77.2 °F 30.04 in SE 5.0 mph 8.0 mph 86 % 0.00 in
23:33 81.9 °F 77.2 °F 30.04 in ESE 3.0 mph 8.0 mph 86 % 0.00 in
23:38 81.9 °F 77.2 °F 30.04 in SE 2.0 mph 8.0 mph 86 % 0.00 in
23:40 81.9 °F 77.2 °F 30.04 in SSE 3.0 mph 9.0 mph 86 % 0.00 in
23:45 81.9 °F 77.2 °F 30.04 in South 5.0 mph 9.0 mph 86 % 0.00 in
23:50 81.7 °F 77.0 °F 30.03 in SE 5.0 mph 10.0 mph 86 % 0.00 in
23:55 81.7 °F 77.4 °F 30.03 in SE 7.0 mph 10.0 mph 87 % 0.00 in
Spring, Texas: Villages of Bridgestone
Compliments of Weather Underground - 2.75 mb

Script developed by  Jim McMurry - jmcmurry@mwt.net Adapted for the template by  Wim van der Kuil - Leuven-Template.eu

You find our weather info also at:

UK Metoffice

WeatherCloud

Weather Underground

Mid-South Weather Network

AWEKAS

Citizen Weather Observer Program (CWOP)

HAMweather, WeatherForYou, PWS Weather

Equipment we use:

Weather-station
Davis Vantage Vue

Weather-program
Meteohub

Weather-server
Debian 7.9 x86 (Guest)

Provider
DreamHost

Davis Vantage Vue

Meteohub

Debian 7.9 x86 (Guest)

DreamHost